Time;durP1;ratioP1;P1;durP2;ratioP2;P2;SDS_P1;SDS_P2;PMS_P1;PMS_P2;Temp;Humidity;BMP_temperature;BMP_pressure;BME280_temperature;BME280_humidity;BME280_pressure;Samples;Min_cycle;Max_cycle;Signal;HPM_P1;HPM_P2
2021/03/04 00:02:10;;;;;;;80.88;20.65;;;6.90;1.00;;;;;;5120180;27;20672;-67
2021/03/04 00:04:39;;;;;;;78.50;19.67;;;6.90;1.00;;;;;;5132464;27;20573;-67
2021/03/04 00:07:09;;;;;;;81.60;20.05;;;6.90;1.00;;;;;;5124091;28;20598;-68
2021/03/04 00:09:43;;;;;;;80.20;19.80;;;6.80;1.00;;;;;;5125779;27;20575;-67
2021/03/04 00:12:18;;;;;;;80.18;19.17;;;6.90;1.00;;;;;;5124968;28;20545;-67
2021/03/04 00:14:46;;;;;;;85.88;20.80;;;6.90;1.00;;;;;;5130850;27;20790;-68
2021/03/04 00:17:16;;;;;;;83.07;21.50;;;6.90;1.00;;;;;;5130919;27;20222;-69
2021/03/04 00:19:45;;;;;;;80.38;20.80;;;6.90;1.00;;;;;;5130294;27;20207;-68
2021/03/04 00:22:14;;;;;;;86.25;21.27;;;6.80;1.00;;;;;;5129487;27;20582;-68
2021/03/04 00:24:45;;;;;;;79.65;19.60;;;6.90;1.00;;;;;;5128362;27;20596;-68
2021/03/04 00:27:14;;;;;;;77.95;19.10;;;6.80;1.00;;;;;;5136432;27;20626;-69
2021/03/04 00:29:44;;;;;;;80.88;20.08;;;6.80;1.00;;;;;;5136382;27;20385;-69
2021/03/04 00:32:13;;;;;;;77.97;19.42;;;6.80;1.00;;;;;;5136407;27;20202;-69
2021/03/04 00:34:41;;;;;;;84.13;20.05;;;6.80;1.00;;;;;;5136125;27;20222;-69
2021/03/04 00:37:11;;;;;;;85.55;21.08;;;6.70;1.00;;;;;;5132563;27;20306;-69
2021/03/04 00:39:41;;;;;;;81.25;22.50;;;6.70;1.00;;;;;;5136703;27;20512;-69
2021/03/04 00:42:11;;;;;;;80.97;19.58;;;6.60;1.00;;;;;;5128205;27;20218;-69
2021/03/04 00:44:41;;;;;;;84.72;20.88;;;6.60;1.00;;;;;;5135973;27;20321;-69
2021/03/04 00:47:10;;;;;;;88.43;22.40;;;6.60;1.00;;;;;;5135725;27;20219;-68
2021/03/04 00:49:40;;;;;;;80.95;22.00;;;6.60;1.00;;;;;;5135748;27;20278;-69
2021/03/04 00:52:10;;;;;;;82.10;20.63;;;6.60;1.00;;;;;;5135508;27;20236;-68
2021/03/04 00:54:41;;;;;;;80.88;19.88;;;6.50;1.00;;;;;;5135180;27;20226;-69
2021/03/04 00:57:12;;;;;;;89.32;21.17;;;6.60;1.00;;;;;;5135742;27;20253;-69
2021/03/04 00:59:42;;;;;;;88.28;22.65;;;6.50;1.00;;;;;;5135762;27;20202;-69
2021/03/04 01:02:10;;;;;;;80.65;21.75;;;6.50;1.00;;;;;;5135423;27;20207;-69
2021/03/04 01:04:39;;;;;;;83.47;21.52;;;6.50;1.00;;;;;;5135977;27;20203;-68
2021/03/04 01:07:08;;;;;;;85.47;22.65;;;6.50;1.00;;;;;;5135404;27;20227;-69
2021/03/04 01:09:36;;;;;;;82.15;23.10;;;6.50;1.00;;;;;;5135465;27;20207;-68
2021/03/04 01:12:06;;;;;;;82.43;21.52;;;6.50;1.00;;;;;;5135268;27;20210;-68
2021/03/04 01:14:36;;;;;;;83.60;21.27;;;6.40;1.00;;;;;;5135216;27;20232;-69
2021/03/04 01:17:09;;;;;;;81.00;20.50;;;6.40;1.00;;;;;;5135114;27;20222;-68
2021/03/04 01:19:40;;;;;;;77.05;19.77;;;6.40;1.00;;;;;;5135421;27;20207;-68
2021/03/04 01:22:10;;;;;;;84.53;20.65;;;6.40;1.00;;;;;;5135132;27;20221;-68
2021/03/04 01:24:39;;;;;;;88.10;22.25;;;6.30;1.00;;;;;;5135210;27;20203;-69
2021/03/04 01:27:09;;;;;;;80.32;20.42;;;6.30;1.00;;;;;;5133881;27;20223;-69
2021/03/04 01:29:40;;;;;;;82.13;19.85;;;6.30;1.00;;;;;;5134991;27;20210;-68
2021/03/04 01:32:09;;;;;;;82.32;20.63;;;6.30;1.00;;;;;;5134875;27;20205;-68
2021/03/04 01:34:38;;;;;;;84.25;21.70;;;6.30;1.00;;;;;;5134621;27;20223;-69
2021/03/04 01:37:11;;;;;;;85.65;21.23;;;6.30;1.00;;;;;;5134642;27;20219;-69
2021/03/04 01:39:44;;;;;;;82.03;20.52;;;6.20;1.00;;;;;;5135019;27;20199;-68
2021/03/04 01:42:16;;;;;;;81.35;19.67;;;6.20;1.00;;;;;;5134734;27;20203;-68
2021/03/04 01:44:47;;;;;;;81.85;20.25;;;6.20;1.00;;;;;;5134788;27;20259;-68
2021/03/04 01:47:17;;;;;;;85.18;22.27;;;6.20;1.00;;;;;;5134711;27;20231;-68
2021/03/04 01:49:47;;;;;;;88.38;19.92;;;6.20;1.00;;;;;;5134819;27;20248;-69
2021/03/04 01:52:17;;;;;;;85.80;20.10;;;6.20;1.00;;;;;;5134395;27;20207;-68
2021/03/04 01:54:47;;;;;;;80.75;20.92;;;6.20;1.00;;;;;;5132124;27;20228;-69
2021/03/04 01:57:18;;;;;;;83.22;21.70;;;6.20;1.00;;;;;;5134438;27;20266;-67
2021/03/04 01:59:49;;;;;;;80.68;21.05;;;6.20;1.00;;;;;;5134141;27;20210;-68
2021/03/04 02:02:19;;;;;;;80.85;21.00;;;6.20;1.00;;;;;;5134045;27;20211;-68
2021/03/04 02:04:50;;;;;;;80.63;21.17;;;6.20;1.00;;;;;;5134276;27;20280;-67
2021/03/04 02:07:28;;;;;;;79.82;20.20;;;6.20;1.00;;;;;;5134018;27;20219;-68
2021/03/04 02:10:02;;;;;;;83.97;20.23;;;6.10;1.00;;;;;;5133881;27;20203;-68
2021/03/04 02:12:39;;;;;;;86.30;20.40;;;6.10;1.00;;;;;;5134236;27;20204;-67
2021/03/04 02:15:15;;;;;;;83.57;21.65;;;6.10;1.00;;;;;;5134145;27;20252;-68
2021/03/04 02:17:49;;;;;;;78.25;20.10;;;6.10;1.00;;;;;;5134601;27;20226;-68
2021/03/04 02:20:33;;;;;;;88.78;20.10;;;6.10;1.00;;;;;;5133954;27;20211;-68
2021/03/04 02:23:20;;;;;;;81.72;21.00;;;6.10;1.00;;;;;;5133954;27;20288;-68
2021/03/04 02:26:00;;;;;;;79.07;20.27;;;6.10;1.00;;;;;;5133891;27;20227;-68
2021/03/04 02:28:33;;;;;;;80.85;20.90;;;6.10;1.00;;;;;;5133892;27;20199;-67
2021/03/04 02:31:06;;;;;;;83.38;21.30;;;6.00;1.00;;;;;;5133926;27;20465;-68
2021/03/04 02:33:38;;;;;;;83.53;22.42;;;6.00;1.00;;;;;;5133705;27;20219;-67
2021/03/04 02:36:08;;;;;;;83.18;21.80;;;6.00;1.00;;;;;;5132149;27;20238;-68
2021/03/04 02:38:39;;;;;;;77.93;19.02;;;6.00;1.00;;;;;;5129469;27;20207;-68
2021/03/04 02:41:09;;;;;;;81.65;20.42;;;6.00;1.00;;;;;;5125792;27;20195;-67
2021/03/04 02:43:41;;;;;;;76.40;19.42;;;5.90;1.00;;;;;;5133261;27;20200;-68
2021/03/04 02:46:13;;;;;;;85.35;21.27;;;5.90;1.00;;;;;;5125775;27;20223;-68
2021/03/04 02:48:43;;;;;;;78.70;19.55;;;5.80;1.00;;;;;;5132890;27;20199;-68
2021/03/04 02:51:12;;;;;;;84.03;19.55;;;5.80;1.00;;;;;;5133335;27;20203;-67
2021/03/04 02:53:43;;;;;;;78.40;18.45;;;5.70;1.00;;;;;;5133110;27;20347;-68
2021/03/04 02:56:13;;;;;;;83.78;21.63;;;5.70;1.00;;;;;;5133360;27;20223;-67
2021/03/04 02:58:45;;;;;;;81.70;21.38;;;5.70;1.00;;;;;;5133425;27;20264;-67
2021/03/04 03:01:15;;;;;;;80.90;20.02;;;5.70;1.00;;;;;;5133169;27;20202;-67
2021/03/04 03:03:48;;;;;;;78.25;18.25;;;5.70;1.00;;;;;;5133062;27;20209;-67
2021/03/04 03:06:18;;;;;;;79.60;20.00;;;5.70;1.00;;;;;;5133081;27;20279;-67
2021/03/04 03:08:49;;;;;;;83.57;20.60;;;5.70;1.00;;;;;;5133070;27;20199;-67
2021/03/04 03:11:20;;;;;;;78.22;20.00;;;5.70;1.00;;;;;;5133083;27;20210;-68
2021/03/04 03:13:52;;;;;;;82.68;19.58;;;5.80;1.00;;;;;;5132731;27;20219;-67
2021/03/04 03:16:22;;;;;;;76.38;19.00;;;5.70;1.00;;;;;;5132912;27;20271;-67
2021/03/04 03:18:53;;;;;;;80.53;20.67;;;5.70;1.00;;;;;;5132871;27;20206;-68
2021/03/04 03:21:22;;;;;;;80.75;21.33;;;5.70;1.00;;;;;;5132970;27;20210;-68
2021/03/04 03:23:52;;;;;;;85.32;20.50;;;5.80;1.00;;;;;;5132397;27;20230;-68
2021/03/04 03:26:22;;;;;;;84.80;19.77;;;5.70;1.00;;;;;;5132010;27;20275;-68
2021/03/04 03:28:53;;;;;;;81.68;19.83;;;5.80;1.00;;;;;;5132704;27;20204;-67
2021/03/04 03:31:28;;;;;;;80.88;20.10;;;5.80;1.00;;;;;;5132853;27;20206;-67
2021/03/04 03:34:02;;;;;;;80.15;18.98;;;5.70;1.00;;;;;;5132347;27;20218;-67
2021/03/04 03:36:32;;;;;;;81.43;20.60;;;5.80;1.00;;;;;;5132483;27;20732;-66
2021/03/04 03:39:04;;;;;;;80.95;18.73;;;5.70;1.00;;;;;;5132795;27;20204;-67
2021/03/04 03:41:35;;;;;;;77.72;19.20;;;5.70;1.00;;;;;;5132881;27;20203;-67
2021/03/04 03:44:08;;;;;;;81.63;18.88;;;5.60;1.00;;;;;;5132462;27;20199;-67
2021/03/04 03:46:40;;;;;;;75.00;17.30;;;5.60;1.00;;;;;;5132518;27;20645;-67
2021/03/04 03:49:15;;;;;;;84.40;20.33;;;5.50;1.00;;;;;;5132531;27;20204;-67
2021/03/04 03:51:45;;;;;;;77.63;19.30;;;5.50;1.00;;;;;;5132016;27;20210;-67
2021/03/04 03:54:16;;;;;;;79.65;19.52;;;5.50;1.00;;;;;;5132275;27;20237;-67
2021/03/04 03:56:47;;;;;;;81.40;20.10;;;5.50;1.00;;;;;;5128160;27;20226;-67
2021/03/04 03:59:18;;;;;;;87.07;20.63;;;5.40;1.00;;;;;;5132110;27;20207;-67
2021/03/04 04:01:49;;;;;;;78.90;19.48;;;5.40;1.00;;;;;;5132277;27;20666;-67
2021/03/04 04:04:19;;;;;;;76.53;18.35;;;5.50;1.00;;;;;;5132336;27;20203;-68
2021/03/04 04:06:49;;;;;;;80.53;19.10;;;5.50;1.00;;;;;;5132233;27;20225;-67
2021/03/04 04:09:18;;;;;;;79.75;19.92;;;5.50;1.00;;;;;;5132123;27;20207;-67
2021/03/04 04:11:48;;;;;;;81.07;20.67;;;5.40;1.00;;;;;;5132240;27;20228;-68
2021/03/04 04:14:19;;;;;;;82.47;21.25;;;5.40;1.00;;;;;;5132238;27;20249;-68
2021/03/04 04:16:49;;;;;;;80.00;20.00;;;5.40;1.00;;;;;;5125380;27;20687;-67
2021/03/04 04:19:19;;;;;;;78.53;20.25;;;5.30;1.00;;;;;;5132262;27;20678;-68
2021/03/04 04:21:49;;;;;;;75.85;18.73;;;5.30;1.00;;;;;;5132105;27;20671;-68
2021/03/04 04:24:18;;;;;;;84.05;19.90;;;5.30;1.00;;;;;;5125124;28;20708;-68
2021/03/04 04:26:48;;;;;;;78.00;18.33;;;5.30;1.00;;;;;;5131933;27;20658;-67
2021/03/04 04:29:19;;;;;;;76.35;18.77;;;5.20;1.00;;;;;;5132037;27;20203;-68
2021/03/04 04:31:49;;;;;;;81.00;19.75;;;5.20;1.00;;;;;;5132004;27;20228;-67
2021/03/04 04:34:18;;;;;;;80.22;19.20;;;5.20;1.00;;;;;;5131846;27;20732;-67
2021/03/04 04:36:47;;;;;;;81.22;18.33;;;5.20;1.00;;;;;;5131279;27;20739;-68
2021/03/04 04:39:17;;;;;;;80.25;19.08;;;5.20;1.00;;;;;;5131631;27;20687;-67
2021/03/04 04:41:47;;;;;;;75.85;17.80;;;5.10;1.00;;;;;;5131173;27;20658;-68
2021/03/04 04:44:16;;;;;;;74.50;17.70;;;5.10;1.00;;;;;;5131663;27;20564;-67
2021/03/04 04:46:47;;;;;;;82.10;19.88;;;5.10;1.00;;;;;;5132145;27;20597;-68
2021/03/04 04:49:16;;;;;;;76.30;17.65;;;5.10;1.00;;;;;;5131931;27;20706;-67
2021/03/04 04:51:45;;;;;;;81.07;19.88;;;5.00;1.00;;;;;;5131788;27;20606;-68
2021/03/04 04:54:14;;;;;;;79.85;18.40;;;4.90;1.00;;;;;;5131819;27;20340;-67
2021/03/04 04:56:44;;;;;;;80.43;18.60;;;4.90;1.00;;;;;;5131752;27;20281;-67
2021/03/04 04:59:14;;;;;;;78.97;19.02;;;4.90;1.00;;;;;;5131970;27;20659;-69
2021/03/04 05:01:45;;;;;;;78.45;19.75;;;4.90;1.00;;;;;;5133731;27;20203;-68
2021/03/04 05:04:14;;;;;;;83.65;18.10;;;4.90;1.00;;;;;;5135387;27;20202;-68
2021/03/04 05:06:49;;;;;;;79.65;18.02;;;4.90;1.00;;;;;;5135013;27;20610;-69
2021/03/04 05:09:19;;;;;;;79.80;20.40;;;4.90;1.00;;;;;;5135539;27;20578;-68
2021/03/04 05:11:49;;;;;;;81.35;21.45;;;4.80;1.00;;;;;;5135303;27;20207;-68
2021/03/04 05:14:18;;;;;;;84.82;21.08;;;4.80;1.00;;;;;;5135199;27;20230;-69
2021/03/04 05:16:49;;;;;;;82.43;19.42;;;4.80;1.00;;;;;;5135215;27;20289;-68
2021/03/04 05:19:19;;;;;;;81.22;19.90;;;4.80;1.00;;;;;;5135548;27;20594;-68
2021/03/04 05:21:51;;;;;;;76.18;18.15;;;4.80;1.00;;;;;;5135394;27;20207;-68
2021/03/04 05:24:23;;;;;;;81.75;20.42;;;4.80;1.00;;;;;;5135161;27;20678;-68
2021/03/04 05:26:52;;;;;;;80.60;19.90;;;4.80;1.00;;;;;;5135044;27;20238;-68
2021/03/04 05:29:22;;;;;;;79.82;20.10;;;4.80;1.00;;;;;;5135095;27;20243;-68
2021/03/04 05:31:53;;;;;;;78.55;19.15;;;4.80;1.00;;;;;;5135110;27;20249;-68
2021/03/04 05:34:21;;;;;;;81.63;19.17;;;4.80;1.00;;;;;;5135189;27;20226;-69
2021/03/04 05:36:50;;;;;;;84.07;20.10;;;4.80;1.00;;;;;;5135023;27;20227;-68
2021/03/04 05:39:20;;;;;;;78.45;19.45;;;4.70;1.00;;;;;;5132757;27;20214;-68
2021/03/04 05:41:51;;;;;;;81.57;17.70;;;4.70;1.00;;;;;;5127397;27;20314;-68
2021/03/04 05:44:21;;;;;;;79.15;19.55;;;4.70;1.00;;;;;;5134359;27;20199;-66
2021/03/04 05:46:53;;;;;;;82.78;19.60;;;4.70;1.00;;;;;;5134473;27;20299;-68
2021/03/04 05:49:25;;;;;;;82.03;20.35;;;4.60;1.00;;;;;;5134645;27;20206;-69
2021/03/04 05:51:57;;;;;;;87.40;21.38;;;4.60;1.00;;;;;;5134468;27;20252;-68
2021/03/04 05:54:36;;;;;;;81.57;19.73;;;4.60;1.00;;;;;;5134563;27;20227;-68
2021/03/04 05:57:08;;;;;;;80.82;19.63;;;4.50;1.00;;;;;;5132861;27;20214;-68
2021/03/04 05:59:38;;;;;;;83.70;19.95;;;4.50;1.00;;;;;;5134306;27;20265;-68
2021/03/04 06:02:11;;;;;;;79.88;18.48;;;4.40;1.00;;;;;;5125822;27;20190;-68
2021/03/04 06:04:43;;;;;;;78.35;18.73;;;4.40;1.00;;;;;;5134347;27;20203;-68
2021/03/04 06:07:14;;;;;;;84.70;20.60;;;4.40;1.00;;;;;;5126528;27;20211;-68
2021/03/04 06:09:43;;;;;;;82.30;18.23;;;4.40;1.00;;;;;;5134450;27;20205;-69
2021/03/04 06:12:13;;;;;;;80.95;19.50;;;4.30;1.00;;;;;;5130983;27;20211;-68
2021/03/04 06:14:43;;;;;;;79.35;18.88;;;4.30;1.00;;;;;;5130663;27;20222;-68
2021/03/04 06:17:18;;;;;;;79.80;20.00;;;4.30;1.00;;;;;;5134074;27;20219;-68
2021/03/04 06:19:56;;;;;;;80.70;20.40;;;4.30;1.00;;;;;;5131229;27;20202;-68
2021/03/04 06:22:26;;;;;;;82.88;19.85;;;4.30;1.00;;;;;;5134004;27;20206;-69
2021/03/04 06:24:57;;;;;;;77.53;18.63;;;4.30;1.00;;;;;;5133852;27;20255;-67
2021/03/04 06:27:30;;;;;;;81.72;20.45;;;4.20;1.00;;;;;;5134032;27;20248;-68
2021/03/04 06:30:04;;;;;;;79.68;19.13;;;4.20;1.00;;;;;;5134031;27;20242;-67
2021/03/04 06:32:38;;;;;;;78.43;19.00;;;4.30;1.00;;;;;;5133986;27;20202;-68
2021/03/04 06:35:10;;;;;;;77.30;18.48;;;4.20;1.00;;;;;;5133606;27;20226;-67
2021/03/04 06:37:40;;;;;;;77.95;18.75;;;4.20;1.00;;;;;;5129926;27;20275;-67
2021/03/04 06:40:20;;;;;;;83.47;18.88;;;4.20;1.00;;;;;;5125858;27;20199;-68
2021/03/04 06:42:54;;;;;;;84.40;20.02;;;4.20;1.00;;;;;;5133399;27;20218;-68
2021/03/04 06:45:31;;;;;;;82.30;20.35;;;4.20;1.00;;;;;;5133469;27;20203;-68
2021/03/04 06:48:12;;;;;;;84.35;20.02;;;4.20;1.00;;;;;;5133653;27;20207;-68
2021/03/04 06:50:42;;;;;;;82.43;20.88;;;4.30;1.00;;;;;;5133481;27;20210;-68
2021/03/04 06:53:18;;;;;;;81.90;20.85;;;4.30;1.00;;;;;;5133378;27;20207;-68
2021/03/04 06:55:54;;;;;;;81.43;20.70;;;4.40;1.00;;;;;;5133720;27;20342;-68
2021/03/04 06:58:29;;;;;;;83.55;21.05;;;4.40;1.00;;;;;;5133265;27;20583;-68
2021/03/04 07:01:11;;;;;;;87.75;21.02;;;4.50;1.00;;;;;;5133341;27;20207;-68
2021/03/04 07:03:45;;;;;;;81.55;19.92;;;4.50;1.00;;;;;;5133118;27;20227;-68
2021/03/04 07:06:16;;;;;;;83.53;18.77;;;4.60;1.00;;;;;;5132142;27;20225;-68
2021/03/04 07:08:50;;;;;;;76.63;19.45;;;4.60;1.00;;;;;;5132800;27;20203;-68
2021/03/04 07:11:22;;;;;;;82.70;21.70;;;4.70;1.00;;;;;;5132926;27;20203;-68
2021/03/04 07:13:56;;;;;;;79.95;20.30;;;4.80;1.00;;;;;;5132694;27;20775;-68
2021/03/04 07:16:29;;;;;;;79.60;19.48;;;4.90;1.00;;;;;;5132934;27;20642;-68
2021/03/04 07:19:00;;;;;;;80.13;20.95;;;5.00;1.00;;;;;;5132719;27;20242;-68
2021/03/04 07:21:30;;;;;;;83.53;22.48;;;5.10;1.00;;;;;;5132572;27;20214;-68
2021/03/04 07:24:03;;;;;;;84.18;20.40;;;5.20;1.00;;;;;;5132817;27;20195;-68
2021/03/04 07:26:37;;;;;;;79.93;20.33;;;5.30;1.00;;;;;;5132119;27;20231;-68
2021/03/04 07:29:08;;;;;;;79.50;19.90;;;5.40;1.00;;;;;;5132797;27;20263;-67
2021/03/04 07:31:42;;;;;;;82.22;19.02;;;5.50;1.00;;;;;;5132698;27;20214;-67
2021/03/04 07:34:15;;;;;;;86.10;20.08;;;5.60;1.00;;;;;;5132272;27;20602;-67
2021/03/04 07:36:48;;;;;;;79.65;18.98;;;5.80;1.00;;;;;;5132701;27;20231;-68
2021/03/04 07:39:17;;;;;;;78.55;18.83;;;6.00;1.00;;;;;;5132838;27;20202;-68
2021/03/04 07:41:52;;;;;;;77.80;18.10;;;6.10;1.00;;;;;;5132636;27;20203;-67
2021/03/04 07:44:30;;;;;;;81.43;20.50;;;6.20;1.00;;;;;;5132451;27;20230;-67
2021/03/04 07:47:01;;;;;;;81.40;20.25;;;6.20;1.00;;;;;;5132719;27;20255;-67
2021/03/04 07:49:39;;;;;;;75.50;18.48;;;6.20;1.00;;;;;;5132514;27;20206;-68
2021/03/04 07:52:13;;;;;;;87.28;20.65;;;6.20;1.00;;;;;;5132441;27;20214;-68
2021/03/04 07:54:44;;;;;;;81.70;19.60;;;6.20;1.00;;;;;;5132482;27;20222;-68
2021/03/04 07:57:14;;;;;;;91.25;20.95;;;6.20;1.00;;;;;;5132337;27;20271;-67
2021/03/04 07:59:55;;;;;;;82.70;18.45;;;6.30;1.00;;;;;;5132363;27;20203;-68
2021/03/04 08:02:26;;;;;;;80.38;19.25;;;6.40;1.00;;;;;;5132286;27;20210;-68
2021/03/04 08:05:07;;;;;;;79.65;19.50;;;6.50;1.00;;;;;;5132928;27;20256;-68
2021/03/04 08:07:36;;;;;;;76.82;18.42;;;6.70;1.00;;;;;;5125086;27;20228;-68
2021/03/04 08:10:11;;;;;;;82.55;20.15;;;7.00;1.00;;;;;;5132086;27;20218;-67
2021/03/04 08:12:53;;;;;;;79.82;17.98;;;7.20;1.00;;;;;;5132142;27;20290;-67
2021/03/04 08:15:31;;;;;;;79.22;19.15;;;7.40;1.00;;;;;;5125787;28;20279;-67
2021/03/04 08:18:00;;;;;;;83.07;21.38;;;7.50;1.00;;;;;;5130695;27;20207;-68
2021/03/04 08:20:31;;;;;;;80.93;20.05;;;7.50;1.00;;;;;;5121409;27;20248;-67
2021/03/04 08:23:00;;;;;;;76.68;17.65;;;7.50;1.00;;;;;;5132015;27;20278;-68
2021/03/04 08:25:32;;;;;;;76.18;19.20;;;7.50;1.00;;;;;;5131956;27;20199;-67
2021/03/04 08:28:04;;;;;;;82.13;19.10;;;7.60;1.00;;;;;;5132294;27;20683;-68
2021/03/04 08:30:35;;;;;;;84.22;19.33;;;7.60;1.00;;;;;;5132311;27;20216;-68
2021/03/04 08:33:06;;;;;;;77.47;18.00;;;7.80;1.00;;;;;;5132032;27;20205;-68
2021/03/04 08:35:40;;;;;;;89.00;20.05;;;7.90;1.00;;;;;;5131771;27;20577;-68
2021/03/04 08:38:10;;;;;;;79.05;17.23;;;8.10;1.00;;;;;;5135984;27;20208;-68
2021/03/04 08:40:47;;;;;;;79.37;19.80;;;8.30;1.00;;;;;;5136140;27;20207;-68
2021/03/04 08:43:17;;;;;;;77.43;18.87;;;8.50;1.00;;;;;;5136132;27;20434;-68
2021/03/04 08:45:48;;;;;;;78.13;17.80;;;8.60;1.00;;;;;;5135870;27;20458;-67
2021/03/04 08:48:17;;;;;;;78.50;18.60;;;8.80;1.00;;;;;;5135972;27;20448;-67
2021/03/04 08:50:52;;;;;;;79.03;18.40;;;8.90;1.00;;;;;;5135822;27;20440;-68
2021/03/04 08:53:22;;;;;;;79.70;18.17;;;9.10;1.00;;;;;;5136140;27;20450;-68
2021/03/04 08:55:53;;;;;;;75.97;17.53;;;9.30;1.00;;;;;;5135743;27;20492;-68
2021/03/04 08:58:24;;;;;;;80.10;18.00;;;9.50;1.00;;;;;;5135751;27;20961;-67
2021/03/04 09:00:54;;;;;;;76.40;17.27;;;9.70;1.00;;;;;;5135752;27;20443;-67
2021/03/04 09:03:25;;;;;;;87.70;17.80;;;9.90;1.00;;;;;;5135751;27;20442;-68
2021/03/04 09:06:05;;;;;;;74.13;16.07;;;10.10;1.00;;;;;;5135519;27;21005;-67
2021/03/04 09:08:36;;;;;;;78.53;15.90;;;10.50;1.00;;;;;;5135850;27;21012;-67
2021/03/04 09:11:10;;;;;;;76.90;16.27;;;10.70;1.00;;;;;;5135500;27;20962;-67
2021/03/04 09:13:40;;;;;;;77.60;15.17;;;11.00;1.00;;;;;;5135442;27;20996;-67
2021/03/04 09:16:10;;;;;;;71.33;13.50;;;11.30;1.00;;;;;;5135231;27;20836;-67
2021/03/04 09:18:49;;;;;;;75.20;14.13;;;11.60;1.00;;;;;;5135290;27;20909;-67
2021/03/04 09:21:21;;;;;;;72.57;14.87;;;12.00;1.00;;;;;;5135600;27;20795;-67
2021/03/04 09:23:51;;;;;;;71.17;14.00;;;12.40;1.00;;;;;;5135187;27;20928;-67
2021/03/04 09:26:19;;;;;;;68.80;12.37;;;12.80;1.00;;;;;;5135212;27;20816;-67
2021/03/04 09:28:49;;;;;;;76.83;13.63;;;13.10;1.00;;;;;;5135107;27;20963;-67
2021/03/04 09:31:19;;;;;;;71.13;12.40;;;13.40;1.00;;;;;;5135170;27;20536;-68
2021/03/04 09:33:58;;;;;;;67.97;12.97;;;13.50;1.00;;;;;;5134831;27;20857;-68
2021/03/04 09:36:29;;;;;;;71.17;12.90;;;13.60;1.00;;;;;;5134889;27;20823;-67
2021/03/04 09:38:59;;;;;;;77.03;11.90;;;13.80;1.00;;;;;;5134904;27;20817;-67
2021/03/04 09:41:29;;;;;;;72.40;14.00;;;14.00;1.00;;;;;;5134870;27;20466;-67
2021/03/04 09:44:03;;;;;;;70.00;12.30;;;14.40;1.00;;;;;;5134611;27;20959;-67
2021/03/04 09:46:35;;;;;;;66.93;9.63;;;14.80;1.00;;;;;;5134732;27;20540;-67
2021/03/04 09:49:12;;;;;;;71.90;11.70;;;14.90;1.00;;;;;;5133790;27;20872;-67
2021/03/04 09:51:45;;;;;;;66.93;11.00;;;14.80;1.00;;;;;;5134560;27;20484;-67
2021/03/04 09:54:25;;;;;;;70.50;11.33;;;14.60;1.00;;;;;;5134467;27;21004;-67
2021/03/04 09:57:05;;;;;;;68.97;10.33;;;14.70;1.00;;;;;;5134590;27;20851;-69
2021/03/04 09:59:46;;;;;;;65.90;10.37;;;14.90;1.00;;;;;;5134427;27;20448;-67
2021/03/04 10:02:16;;;;;;;71.60;10.53;;;15.30;1.00;;;;;;5134487;27;20471;-68
2021/03/04 10:05:00;;;;;;;66.90;10.00;;;15.60;1.00;;;;;;5133833;27;20832;-69
2021/03/04 10:07:33;;;;;;;73.60;11.47;;;16.40;1.00;;;;;;5134278;27;20472;-67
2021/03/04 10:10:02;;;;;;;69.00;11.33;;;17.50;1.00;;;;;;5133513;27;20443;-67
2021/03/04 10:12:32;;;;;;;72.07;11.50;;;18.60;1.00;;;;;;5134111;27;20558;-67
2021/03/04 10:15:02;;;;;;;70.60;10.57;;;19.50;1.00;;;;;;5134012;27;20480;-68
2021/03/04 10:17:41;;;;;;;68.57;10.60;;;20.50;1.00;;;;;;5134059;27;20472;-68
2021/03/04 10:20:11;;;;;;;68.53;11.00;;;21.20;1.00;;;;;;5134232;27;20451;-68
2021/03/04 10:22:45;;;;;;;71.40;11.60;;;21.90;1.00;;;;;;5133804;27;20516;-68
2021/03/04 10:25:15;;;;;;;77.27;12.53;;;22.50;1.00;;;;;;5134031;27;20520;-68
2021/03/04 10:27:45;;;;;;;74.00;12.27;;;23.00;1.00;;;;;;5134069;27;20473;-68
2021/03/04 10:30:16;;;;;;;70.47;13.30;;;23.50;1.00;;;;;;5133876;27;20439;-68
2021/03/04 10:32:46;;;;;;;77.40;13.07;;;23.80;1.00;;;;;;5133776;27;20498;-68
2021/03/04 10:35:17;;;;;;;70.33;14.57;;;24.10;1.00;;;;;;5133345;27;20488;-68
2021/03/04 10:37:47;;;;;;;73.67;13.30;;;24.50;1.00;;;;;;5133703;27;20476;-68
2021/03/04 10:40:19;;;;;;;71.57;13.80;;;24.80;1.00;;;;;;5133748;27;20452;-68
2021/03/04 10:42:52;;;;;;;74.63;15.57;;;25.10;1.00;;;;;;5133609;27;20441;-68
2021/03/04 10:45:24;;;;;;;73.10;13.93;;;25.50;1.00;;;;;;5133657;27;20475;-68
2021/03/04 10:47:54;;;;;;;77.90;14.07;;;26.10;1.00;;;;;;5133624;27;20484;-68
2021/03/04 10:50:25;;;;;;;67.13;13.23;;;26.60;1.00;;;;;;5133534;27;20459;-68
2021/03/04 10:52:56;;;;;;;73.50;13.30;;;26.90;1.00;;;;;;5133326;27;20499;-68
2021/03/04 10:55:24;;;;;;;73.37;14.87;;;27.10;1.00;;;;;;5133284;27;20478;-68
2021/03/04 10:57:54;;;;;;;67.77;12.03;;;27.10;1.00;;;;;;5133001;27;20690;-68
2021/03/04 11:00:24;;;;;;;68.97;12.77;;;27.40;1.00;;;;;;5133125;27;20444;-68
2021/03/04 11:02:54;;;;;;;71.87;14.87;;;27.70;1.00;;;;;;5133214;27;20501;-68
2021/03/04 11:05:24;;;;;;;71.97;15.03;;;28.00;1.00;;;;;;5133227;27;20490;-68
2021/03/04 11:07:55;;;;;;;73.67;14.13;;;28.50;1.00;;;;;;5133202;27;20455;-68
2021/03/04 11:10:24;;;;;;;72.93;15.97;;;29.00;1.00;;;;;;5133178;27;20476;-68
2021/03/04 11:12:54;;;;;;;72.10;14.97;;;28.90;1.00;;;;;;5133006;27;20445;-68
2021/03/04 11:15:23;;;;;;;74.57;15.77;;;29.30;1.00;;;;;;5132950;27;20485;-68
2021/03/04 11:17:53;;;;;;;72.40;16.57;;;29.70;1.00;;;;;;5133303;27;20552;-68
2021/03/04 11:20:24;;;;;;;76.13;16.20;;;29.90;1.00;;;;;;5132913;27;20444;-68
2021/03/04 11:22:54;;;;;;;71.90;15.27;;;30.00;1.00;;;;;;5132997;27;20866;-68
2021/03/04 11:25:24;;;;;;;79.17;15.57;;;30.00;1.00;;;;;;5132709;27;20436;-68
2021/03/04 11:27:53;;;;;;;72.80;14.70;;;30.10;1.00;;;;;;5121705;27;20468;-68
2021/03/04 11:30:26;;;;;;;78.67;14.80;;;30.10;1.00;;;;;;5125392;27;20454;-68
2021/03/04 11:32:56;;;;;;;76.60;15.67;;;29.90;1.00;;;;;;5124753;27;20452;-68
2021/03/04 11:35:27;;;;;;;72.97;13.60;;;29.40;1.00;;;;;;5130644;27;20484;-68
2021/03/04 11:38:08;;;;;;;78.00;16.30;;;28.80;1.00;;;;;;5116721;27;20453;-68
2021/03/04 11:40:38;;;;;;;70.87;13.43;;;28.20;1.00;;;;;;5129693;27;20448;-68
2021/03/04 11:43:11;;;;;;;70.67;13.63;;;28.30;1.00;;;;;;5112202;28;20559;-66
2021/03/04 11:45:41;;;;;;;81.43;15.57;;;28.90;1.00;;;;;;5111866;28;20442;-67
2021/03/04 11:48:11;;;;;;;77.17;14.40;;;28.90;1.00;;;;;;5125401;27;20456;-67
2021/03/04 11:50:40;;;;;;;73.13;13.47;;;28.50;1.00;;;;;;5121943;27;20452;-67
2021/03/04 11:53:11;;;;;;;72.47;13.90;;;27.30;1.00;;;;;;5126171;27;20458;-66
2021/03/04 11:55:43;;;;;;;74.70;14.37;;;26.00;1.00;;;;;;5126567;27;20477;-67
2021/03/04 11:58:12;;;;;;;70.03;13.33;;;25.00;1.00;;;;;;5124806;27;20493;-67
2021/03/04 12:00:42;;;;;;;73.47;13.20;;;24.70;1.00;;;;;;5132296;27;20447;-67
2021/03/04 12:03:14;;;;;;;73.47;11.80;;;24.20;1.00;;;;;;5132235;27;20455;-67
2021/03/04 12:05:46;;;;;;;73.13;13.77;;;23.80;1.00;;;;;;5132364;27;20721;-67
2021/03/04 12:08:21;;;;;;;70.50;13.03;;;23.50;1.00;;;;;;5132160;27;20445;-66
2021/03/04 12:10:51;;;;;;;74.33;10.40;;;24.20;1.00;;;;;;5132301;27;20454;-67
2021/03/04 12:13:23;;;;;;;69.90;10.67;;;24.70;1.00;;;;;;5132406;27;20452;-66
2021/03/04 12:15:53;;;;;;;65.27;9.30;;;24.50;1.00;;;;;;5136170;27;20857;-67
2021/03/04 12:18:23;;;;;;;69.57;7.87;;;23.90;1.00;;;;;;5136373;27;20451;-67
2021/03/04 12:21:11;;;;;;;69.57;9.23;;;23.20;1.00;;;;;;5136266;27;20444;-67
2021/03/04 12:23:48;;;;;;;86.63;8.77;;;22.70;1.00;;;;;;5135870;27;20449;-67
2021/03/04 12:26:22;;;;;;;65.67;8.87;;;22.20;1.00;;;;;;5136240;27;20461;-67
2021/03/04 12:28:55;;;;;;;75.77;7.90;;;22.50;1.00;;;;;;5135486;27;20443;-67
2021/03/04 12:31:25;;;;;;;76.23;6.67;;;23.50;1.00;;;;;;5130973;27;20457;-67
2021/03/04 12:33:55;;;;;;;65.03;7.13;;;24.70;1.00;;;;;;5136381;27;20436;-67
2021/03/04 12:36:31;;;;;;;62.23;6.27;;;25.00;1.00;;;;;;5131832;27;20474;-67
2021/03/04 12:39:02;;;;;;;65.17;6.30;;;25.90;1.00;;;;;;5136059;27;20458;-67
2021/03/04 12:41:31;;;;;;;65.53;7.00;;;26.60;1.00;;;;;;5136236;27;20437;-67
2021/03/04 12:44:01;;;;;;;61.77;6.07;;;27.00;1.00;;;;;;5133900;27;20449;-67
2021/03/04 12:46:31;;;;;;;65.47;7.07;;;27.60;1.00;;;;;;5131880;27;20469;-67
2021/03/04 12:49:00;;;;;;;67.60;6.83;;;28.30;1.00;;;;;;5135705;27;20454;-67
2021/03/04 12:51:30;;;;;;;61.07;6.70;;;28.70;1.00;;;;;;5135908;27;20447;-67
2021/03/04 12:54:00;;;;;;;63.77;6.80;;;27.90;1.00;;;;;;5135694;27;20467;-66
2021/03/04 12:56:30;;;;;;;64.77;6.50;;;27.00;1.00;;;;;;5134335;27;20474;-66
2021/03/04 12:59:06;;;;;;;63.97;7.13;;;26.70;1.00;;;;;;5135493;27;20444;-67
2021/03/04 13:01:38;;;;;;;65.60;6.40;;;26.70;1.00;;;;;;5135762;27;20446;-66
2021/03/04 13:04:10;;;;;;;63.30;6.80;;;26.40;1.00;;;;;;5135554;27;20531;-67
2021/03/04 13:06:39;;;;;;;67.93;6.60;;;26.70;1.00;;;;;;5135469;27;20465;-66
2021/03/04 13:09:10;;;;;;;62.77;6.27;;;27.10;1.00;;;;;;5135600;27;20517;-67